createdAt,value
2023-08-07T00:01:18.186Z,0.45
2023-08-07T00:05:20.223Z,0.50
2023-08-07T00:09:21.916Z,0.40
2023-08-07T00:13:24.061Z,0.40
2023-08-07T00:17:26.115Z,0.45
2023-08-07T00:21:28.105Z,0.40
2023-08-07T00:25:30.157Z,0.30
2023-08-07T00:29:32.329Z,0.50
2023-08-07T00:33:34.379Z,0.20
2023-08-07T00:37:36.482Z,0.40
2023-08-07T00:41:38.185Z,0.50
2023-08-07T00:45:46.100Z,0.55
2023-08-07T00:49:49.578Z,0.40
2023-08-07T00:53:51.677Z,0.50
2023-08-07T00:57:53.925Z,0.40
2023-08-07T01:01:56.208Z,0.80
2023-08-07T01:05:58.352Z,0.50
2023-08-07T01:10:04.260Z,0.60
2023-08-07T01:14:19.367Z,0.73
2023-08-07T01:18:23.476Z,0.95
2023-08-07T01:22:25.448Z,0.80
2023-08-07T01:26:27.671Z,0.93
2023-08-07T01:30:38.198Z,1.48
2023-08-07T01:34:42.608Z,2.03
2023-08-07T01:38:45.616Z,1.77
2023-08-07T01:42:48.572Z,1.73
2023-08-07T01:46:50.549Z,2.10
2023-08-07T01:50:54.558Z,2.03
2023-08-07T01:54:56.344Z,2.17
2023-08-07T01:58:58.364Z,1.98
2023-08-07T02:03:00.500Z,2.40
2023-08-07T02:07:02.828Z,2.53
2023-08-07T02:11:04.853Z,3.10
2023-08-07T02:15:07.548Z,3.47
2023-08-07T02:19:09.602Z,3.03
2023-08-07T02:23:11.582Z,3.10
2023-08-07T02:27:13.709Z,3.38
2023-08-07T02:31:15.734Z,3.45
2023-08-07T02:35:17.986Z,2.80
2023-08-07T02:39:20.045Z,2.70
2023-08-07T02:43:22.016Z,2.58
2023-08-07T02:47:24.566Z,2.45
2023-08-07T02:51:26.565Z,2.60
2023-08-07T02:55:29.083Z,2.42
2023-08-07T02:59:31.312Z,2.58
2023-08-07T03:03:33.958Z,2.30
2023-08-07T03:07:36.021Z,2.45
2023-08-07T03:11:38.114Z,2.20
2023-08-07T03:15:40.436Z,2.05
2023-08-07T03:19:44.165Z,2.17
2023-08-07T03:23:47.715Z,2.20
2023-08-07T03:27:49.803Z,3.78
2023-08-07T03:31:51.887Z,3.10
2023-08-07T03:35:54.606Z,2.60
2023-08-07T03:39:57.152Z,3.40
2023-08-07T03:44:00.481Z,3.47
2023-08-07T03:48:02.670Z,3.38
2023-08-07T03:52:05.799Z,3.63
2023-08-07T03:56:07.902Z,4.50
2023-08-07T04:00:12.643Z,4.53
2023-08-07T04:04:17.359Z,4.65
2023-08-07T04:08:19.749Z,4.97
2023-08-07T04:12:21.980Z,5.25
2023-08-07T04:16:23.972Z,4.70
2023-08-07T04:20:26.039Z,4.70
2023-08-07T04:24:29.521Z,5.00
2023-08-07T04:28:31.587Z,4.22
2023-08-07T04:32:33.921Z,4.07
2023-08-07T04:36:35.988Z,3.53
2023-08-07T04:40:37.962Z,3.40
2023-08-07T04:44:39.993Z,2.90
2023-08-07T04:48:42.297Z,3.00
2023-08-07T04:52:44.312Z,2.95
2023-08-07T04:56:46.102Z,2.80
2023-08-07T05:00:48.299Z,2.50
2023-08-07T05:04:50.341Z,2.28
2023-08-07T05:08:52.325Z,1.75
2023-08-07T05:12:56.880Z,1.80
2023-08-07T05:17:00.626Z,1.50
2023-08-07T05:21:04.149Z,2.05
2023-08-07T05:25:06.255Z,1.55
2023-08-07T05:29:08.914Z,1.63
2023-08-07T05:33:11.150Z,1.73
2023-08-07T05:37:13.170Z,1.85
2023-08-07T05:41:14.883Z,2.20
2023-08-07T05:45:16.898Z,2.85
2023-08-07T05:49:18.908Z,2.30
2023-08-07T05:53:20.900Z,2.50
2023-08-07T05:57:22.894Z,2.90
2023-08-07T06:01:30.457Z,3.75
2023-08-07T06:05:32.588Z,3.13
2023-08-07T06:09:34.617Z,4.47
2023-08-07T06:13:36.872Z,4.80
2023-08-07T06:17:40.446Z,4.60
2023-08-07T06:21:42.626Z,4.68
2023-08-07T06:25:44.627Z,4.07
2023-08-07T06:29:46.672Z,3.97
2023-08-07T06:33:48.686Z,3.47
2023-08-07T06:37:50.720Z,4.10
2023-08-07T06:41:52.813Z,3.72
2023-08-07T06:46:00.674Z,3.55
2023-08-07T06:50:02.755Z,3.08
2023-08-07T06:54:05.397Z,2.33
2023-08-07T06:58:07.433Z,2.10
2023-08-07T07:02:09.419Z,2.30
2023-08-07T07:06:11.390Z,2.85
2023-08-07T07:10:13.613Z,2.97
2023-08-07T07:14:15.821Z,2.80
2023-08-07T07:18:17.978Z,1.98
2023-08-07T07:22:20.005Z,2.00
2023-08-07T07:26:22.617Z,2.00
2023-08-07T07:30:24.734Z,1.70
2023-08-07T07:34:26.866Z,2.40
2023-08-07T07:38:28.872Z,1.75
2023-08-07T07:42:30.868Z,2.03
2023-08-07T07:46:33.592Z,1.55
2023-08-07T07:50:35.672Z,1.77
2023-08-07T07:54:37.692Z,1.55
2023-08-07T07:58:39.748Z,1.60
2023-08-07T08:02:43.722Z,2.08
2023-08-07T08:06:45.866Z,2.17
2023-08-07T08:10:48.958Z,2.78
2023-08-07T08:14:56.253Z,1.73
2023-08-07T08:18:58.562Z,1.98
2023-08-07T08:23:00.903Z,1.65
2023-08-07T08:27:03.176Z,1.75
2023-08-07T08:31:06.540Z,1.35
2023-08-07T08:35:08.988Z,1.80
2023-08-07T08:39:11.008Z,1.33
2023-08-07T08:43:13.550Z,2.17
2023-08-07T08:47:16.157Z,1.92
2023-08-07T08:51:19.521Z,2.00
2023-08-07T08:55:22.524Z,1.73
2023-08-07T08:59:24.699Z,2.00
2023-08-07T09:03:27.398Z,1.58
2023-08-07T09:07:29.656Z,1.52
2023-08-07T09:11:32.043Z,1.63
2023-08-07T09:15:34.512Z,1.67
2023-08-07T09:19:36.556Z,1.30
2023-08-07T09:23:38.583Z,1.30
2023-08-07T09:27:40.643Z,1.15
2023-08-07T09:31:46.670Z,1.10
2023-08-07T09:35:48.708Z,0.98
2023-08-07T09:39:51.996Z,0.80
2023-08-07T09:43:54.087Z,0.90
2023-08-07T09:47:59.949Z,1.30
2023-08-07T09:52:08.081Z,0.98
2023-08-07T09:56:10.585Z,1.35
2023-08-07T10:00:16.498Z,3.45
2023-08-07T10:04:18.751Z,2.42
2023-08-07T10:08:22.384Z,1.17
2023-08-07T10:12:24.432Z,1.40
2023-08-07T10:16:31.152Z,0.88
2023-08-07T10:20:33.381Z,1.00
2023-08-07T10:24:41.402Z,0.73
2023-08-07T10:28:44.482Z,1.20
2023-08-07T10:32:46.891Z,0.90
2023-08-07T10:36:48.933Z,1.25
2023-08-07T10:41:07.944Z,1.10
2023-08-07T10:45:09.924Z,1.02
2023-08-07T10:49:11.915Z,1.20
2023-08-07T10:53:33.106Z,1.98
2023-08-07T10:57:35.124Z,3.22
2023-08-07T11:01:39.900Z,1.25
2023-08-07T11:05:42.044Z,1.52
2023-08-07T11:09:44.102Z,1.55
2023-08-07T11:13:46.357Z,2.15
2023-08-07T11:17:48.481Z,1.25
2023-08-07T11:21:51.926Z,1.27
2023-08-07T11:25:54.553Z,1.10
2023-08-07T11:29:56.382Z,1.13
2023-08-07T11:33:59.218Z,1.13
2023-08-07T11:38:01.620Z,1.15
2023-08-07T11:42:03.501Z,1.38
2023-08-07T11:46:08.130Z,1.27
2023-08-07T11:50:11.025Z,2.08
2023-08-07T11:54:15.544Z,1.08
2023-08-07T11:58:17.494Z,2.55
2023-08-07T12:02:25.171Z,1.30
2023-08-07T12:06:27.535Z,2.05
2023-08-07T12:10:29.304Z,1.10
2023-08-07T12:14:32.099Z,1.40
2023-08-07T12:18:34.309Z,1.30
2023-08-07T12:22:36.738Z,1.75
2023-08-07T12:26:38.686Z,1.67
2023-08-07T12:30:41.516Z,1.13
2023-08-07T12:38:48.887Z,1.40
2023-08-07T12:42:52.011Z,1.30
2023-08-07T12:46:53.762Z,1.30
2023-08-07T12:50:55.847Z,1.70
2023-08-07T12:54:57.842Z,1.50
2023-08-07T12:58:59.901Z,1.48
2023-08-07T13:03:01.887Z,1.60
2023-08-07T13:07:04.434Z,1.58
2023-08-07T13:11:06.461Z,1.20
2023-08-07T13:15:10.295Z,1.55
2023-08-07T13:19:12.318Z,1.38
2023-08-07T13:23:15.303Z,1.27
2023-08-07T13:27:17.231Z,1.90
2023-08-07T13:31:19.419Z,1.50
2023-08-07T13:35:21.452Z,1.20
2023-08-07T13:39:23.463Z,1.33
2023-08-07T13:43:25.621Z,1.63
2023-08-07T13:47:27.863Z,1.52
2023-08-07T13:51:29.885Z,1.75
2023-08-07T13:55:31.966Z,1.48
2023-08-07T13:59:34.093Z,1.40
2023-08-07T14:03:36.279Z,1.63
2023-08-07T14:07:38.293Z,1.35
2023-08-07T14:11:40.934Z,2.38
2023-08-07T14:15:43.089Z,1.60
2023-08-07T14:19:45.526Z,1.77
2023-08-07T14:23:49.230Z,1.73
2023-08-07T14:27:51.323Z,1.80
2023-08-07T14:31:53.352Z,1.92
2023-08-07T14:35:55.357Z,2.25
2023-08-07T14:39:57.069Z,2.25
2023-08-07T14:43:59.175Z,2.00
2023-08-07T14:48:01.203Z,2.20
2023-08-07T14:52:03.571Z,2.22
2023-08-07T14:56:05.557Z,2.05
2023-08-07T15:00:09.757Z,1.95
2023-08-07T15:04:12.120Z,1.67
2023-08-07T15:08:14.363Z,1.50
2023-08-07T15:12:16.341Z,1.83
2023-08-07T15:16:18.448Z,1.80
2023-08-07T15:20:21.073Z,1.67
2023-08-07T15:24:23.142Z,1.65
2023-08-07T15:28:25.254Z,1.70
2023-08-07T15:32:27.374Z,1.52
2023-08-07T15:36:29.608Z,1.90
2023-08-07T15:40:31.696Z,2.13
2023-08-07T15:44:33.874Z,1.60
2023-08-07T15:48:35.966Z,1.80
2023-08-07T15:52:38.089Z,1.70
2023-08-07T15:56:40.159Z,2.03
2023-08-07T16:00:42.170Z,2.20
2023-08-07T16:04:44.228Z,2.05
2023-08-07T16:08:46.831Z,1.77
2023-08-07T16:12:49.082Z,1.92
2023-08-07T16:16:52.657Z,1.55
2023-08-07T16:20:54.713Z,1.60
2023-08-07T16:24:56.816Z,1.88
2023-08-07T16:28:58.824Z,1.92
2023-08-07T16:33:00.973Z,1.67
2023-08-07T16:37:03.946Z,1.65
2023-08-07T16:41:05.961Z,1.65
2023-08-07T16:45:08.663Z,2.15
2023-08-07T16:49:10.815Z,2.25
2023-08-07T16:53:12.778Z,1.70
2023-08-07T16:57:15.691Z,1.92
2023-08-07T17:01:17.813Z,2.28
2023-08-07T17:05:23.337Z,1.92
2023-08-07T17:09:25.397Z,2.50
2023-08-07T17:13:27.443Z,1.88
2023-08-07T17:17:29.446Z,1.92
2023-08-07T17:21:31.537Z,1.88
2023-08-07T17:25:33.645Z,2.35
2023-08-07T17:29:35.758Z,1.80
2023-08-07T17:33:38.374Z,2.15
2023-08-07T17:37:40.334Z,2.00
2023-08-07T17:41:42.395Z,2.08
2023-08-07T17:45:44.659Z,1.88
2023-08-07T17:49:46.793Z,1.88
2023-08-07T17:53:48.766Z,1.73
2023-08-07T17:57:51.634Z,2.13
2023-08-07T18:01:53.617Z,1.83
2023-08-07T18:05:56.432Z,1.88
2023-08-07T18:09:58.768Z,1.63
2023-08-07T18:14:00.801Z,1.80
2023-08-07T18:18:03.046Z,2.03
2023-08-07T18:22:05.193Z,1.52
2023-08-07T18:26:07.199Z,1.70
2023-08-07T18:30:09.708Z,1.58
2023-08-07T18:34:13.019Z,1.92
2023-08-07T18:38:15.271Z,2.08
2023-08-07T18:42:17.232Z,2.10
2023-08-07T18:46:19.311Z,1.90
2023-08-07T18:50:21.480Z,1.70
2023-08-07T18:54:25.469Z,1.70
2023-08-07T18:58:27.586Z,1.42
2023-08-07T19:02:29.807Z,1.95
2023-08-07T19:06:33.674Z,1.70
2023-08-07T19:10:36.106Z,1.60
2023-08-07T19:14:38.359Z,1.80
2023-08-07T19:18:40.376Z,1.75
2023-08-07T19:22:42.702Z,2.00
2023-08-07T19:26:44.822Z,1.80
2023-08-07T19:31:00.062Z,1.75
2023-08-07T19:35:08.059Z,1.83
2023-08-07T19:39:10.289Z,1.80
2023-08-07T19:43:12.303Z,1.80
2023-08-07T19:47:25.876Z,1.92
2023-08-07T19:51:36.754Z,1.95
2023-08-07T19:55:38.815Z,1.70
2023-08-07T19:59:40.964Z,2.00
2023-08-07T20:03:43.100Z,2.33
2023-08-07T20:07:45.155Z,2.22
2023-08-07T20:11:47.206Z,2.10
2023-08-07T20:15:49.279Z,1.95
2023-08-07T20:19:51.727Z,2.25
2023-08-07T20:23:54.143Z,2.40
2023-08-07T20:27:56.128Z,1.75
2023-08-07T20:32:00.299Z,2.55
2023-08-07T20:36:02.717Z,2.10
2023-08-07T20:40:05.355Z,2.63
2023-08-07T20:44:07.584Z,2.10
2023-08-07T20:48:09.873Z,2.45
2023-08-07T20:52:12.103Z,2.08
2023-08-07T20:56:14.365Z,1.83
2023-08-07T21:00:17.237Z,2.15
2023-08-07T21:04:19.435Z,2.25
2023-08-07T21:08:21.482Z,2.75
2023-08-07T21:12:23.654Z,2.15
2023-08-07T21:16:26.191Z,2.15
2023-08-07T21:20:28.226Z,2.38
2023-08-07T21:24:30.493Z,2.05
2023-08-07T21:28:35.007Z,2.33
2023-08-07T21:32:37.168Z,2.63
2023-08-07T21:36:39.317Z,2.45
2023-08-07T21:40:41.361Z,2.28
2023-08-07T21:44:43.517Z,2.25
2023-08-07T21:48:45.983Z,2.40
2023-08-07T21:52:48.335Z,2.60
2023-08-07T21:56:50.584Z,2.22
2023-08-07T22:00:52.835Z,2.25
2023-08-07T22:04:54.944Z,2.20
2023-08-07T22:08:57.080Z,2.40
2023-08-07T22:12:59.112Z,2.30
2023-08-07T22:17:01.241Z,2.25
2023-08-07T22:21:03.452Z,2.13
2023-08-07T22:25:05.932Z,2.70
2023-08-07T22:29:08.032Z,2.33
2023-08-07T22:33:10.141Z,2.90
2023-08-07T22:37:12.344Z,2.50
2023-08-07T22:41:15.631Z,2.33
2023-08-07T22:45:17.632Z,2.35
2023-08-07T22:49:21.130Z,2.47
2023-08-07T22:53:23.493Z,3.00
2023-08-07T22:57:25.549Z,2.20
2023-08-07T23:01:27.779Z,2.63
2023-08-07T23:05:29.554Z,2.15
2023-08-07T23:09:32.007Z,2.42
2023-08-07T23:13:34.287Z,2.75
2023-08-07T23:17:36.500Z,2.45
2023-08-07T23:21:38.563Z,2.10
2023-08-07T23:25:40.608Z,2.00
2023-08-07T23:29:43.489Z,2.70
2023-08-07T23:33:45.624Z,2.78
2023-08-07T23:37:47.717Z,2.78
2023-08-07T23:41:49.952Z,2.78
2023-08-07T23:45:52.030Z,2.80
2023-08-07T23:49:54.102Z,2.35
2023-08-07T23:53:56.218Z,2.70
2023-08-07T23:57:58.231Z,2.42
